PWSweather.com
Personal Weather Stations
Station Observations
KVAGLENALL
West Henrico, Glen Allen, VA 23060-6503

West HenricoGlen Allen, VA 23060-6503

Lat: 37.6554, Lon: -77.5693

Elevation: 273

Station Type: Davis Vantage Pro II

www.glenallenweather.com

High Low Average
Temperature 37.9°F3.3°C 12.7°F-10.7°C 26.2°F-3.2°C
Dew Point 14.1°F-9.9°C 6.5°F-14.2°C 10.2°F-12.1°C
Winds 14.0 mph 22.5 kmh Calm Calm 3.0 mph SSE4.8 kmh SSE
Wind Gusts 17.2 mph27.7 kmh -- 5.0 mph8.0 kmh
Humidity 85% 31% 53%
Pressure 30.57 in1035.2 mb 30.37 in1028.4 mb -
Precipitation 0.00 in0.0 mm - -
Hour Temp Dew Point Humidity Winds Wind Gusts Pressure Precip Precip Rate Daily Precip Total
12:00 AM 17.2°F-8.2°C 6.8°F-14.0°C 63% 1.0 mph N1.6 kmh N 1.0 mph1.6 kmh 30.49 in1032.5 mb 0.00 in0.0 mm 0.00 in0.0 mm 0.00 in0.0 mm
12:15 AM 17.1°F-8.3°C 7.7°F-13.5°C 66% 1.0 mph N1.6 kmh N 1.0 mph1.6 kmh 30.48 in1032.2 mb 0.00 in0.0 mm 0.00 in0.0 mm 0.00 in0.0 mm
12:30 AM 17.0°F-8.3°C 6.9°F-13.9°C 64% 2.0 mph N3.2 kmh N 5.1 mph8.2 kmh 30.49 in1032.5 mb 0.00 in0.0 mm 0.00 in0.0 mm 0.00 in0.0 mm
12:45 AM 16.5°F-8.6°C 6.8°F-14.0°C 65% 1.0 mph NNE1.6 kmh NNE 2.0 mph3.2 kmh 30.49 in1032.5 mb 0.00 in0.0 mm 0.00 in0.0 mm 0.00 in0.0 mm
01:00 AM 16.4°F-8.7°C 7.7°F-13.5°C 68% 1.0 mph NNE1.6 kmh NNE 2.0 mph3.2 kmh 30.48 in1032.2 mb 0.00 in0.0 mm 0.00 in0.0 mm 0.00 in0.0 mm
01:15 AM 16.0°F-8.9°C 7.3°F-13.7°C 68% 2.0 mph N3.2 kmh N 3.0 mph4.8 kmh 30.48 in1032.2 mb 0.00 in0.0 mm 0.00 in0.0 mm 0.00 in0.0 mm
01:30 AM 15.8°F-9.0°C 6.5°F-14.2°C 66% 1.0 mph NE1.6 kmh NE 2.0 mph3.2 kmh 30.48 in1032.2 mb 0.00 in0.0 mm 0.00 in0.0 mm 0.00 in0.0 mm
01:45 AM 15.8°F-9.0°C 7.4°F-13.7°C 69% 2.0 mph NE3.2 kmh NE 2.0 mph3.2 kmh 30.47 in1031.8 mb 0.00 in0.0 mm 0.00 in0.0 mm 0.00 in0.0 mm
02:00 AM 15.4°F-9.2°C 7.4°F-13.7°C 70% 3.0 mph NNE4.8 kmh NNE 3.0 mph4.8 kmh 30.48 in1032.2 mb 0.00 in0.0 mm 0.00 in0.0 mm 0.00 in0.0 mm
02:15 AM 14.9°F-9.5°C 6.9°F-13.9°C 70% 2.0 mph NNE3.2 kmh NNE 2.0 mph3.2 kmh 30.49 in1032.5 mb 0.00 in0.0 mm 0.00 in0.0 mm 0.00 in0.0 mm
02:30 AM 14.8°F-9.6°C 7.4°F-13.7°C 72% Calm Calm -- 30.49 in1032.5 mb 0.00 in0.0 mm 0.00 in0.0 mm 0.00 in0.0 mm
02:45 AM 14.5°F-9.7°C 7.7°F-13.5°C 74% Calm Calm -- 30.49 in1032.5 mb 0.00 in0.0 mm 0.00 in0.0 mm 0.00 in0.0 mm
03:00 AM 14.2°F-9.9°C 7.7°F-13.5°C 75% 1.0 mph ENE1.6 kmh ENE 1.0 mph1.6 kmh 30.50 in1032.8 mb 0.00 in0.0 mm 0.00 in0.0 mm 0.00 in0.0 mm
03:15 AM 13.7°F-10.2°C 7.5°F-13.6°C 76% 1.0 mph ENE1.6 kmh ENE 1.0 mph1.6 kmh 30.50 in1032.8 mb 0.00 in0.0 mm 0.00 in0.0 mm 0.00 in0.0 mm
03:30 AM 13.7°F-10.2°C 7.8°F-13.4°C 77% Calm Calm -- 30.50 in1032.8 mb 0.00 in0.0 mm 0.00 in0.0 mm 0.00 in0.0 mm
03:45 AM 13.5°F-10.3°C 7.9°F-13.4°C 78% Calm Calm -- 30.50 in1032.8 mb 0.00 in0.0 mm 0.00 in0.0 mm 0.00 in0.0 mm
04:00 AM 13.5°F-10.3°C 7.9°F-13.4°C 78% Calm Calm 1.0 mph1.6 kmh 30.50 in1032.8 mb 0.00 in0.0 mm 0.00 in0.0 mm 0.00 in0.0 mm
04:15 AM 13.5°F-10.3°C 8.2°F-13.2°C 79% Calm Calm -- 30.49 in1032.5 mb 0.00 in0.0 mm 0.00 in0.0 mm 0.00 in0.0 mm
04:30 AM 13.6°F-10.2°C 8.0°F-13.3°C 78% Calm Calm -- 30.50 in1032.8 mb 0.00 in0.0 mm 0.00 in0.0 mm 0.00 in0.0 mm
04:45 AM 13.6°F-10.2°C 8.6°F-13.0°C 80% Calm Calm -- 30.50 in1032.8 mb 0.00 in0.0 mm 0.00 in0.0 mm 0.00 in0.0 mm
05:00 AM 13.8°F-10.1°C 7.6°F-13.6°C 76% Calm Calm -- 30.51 in1033.2 mb 0.00 in0.0 mm 0.00 in0.0 mm 0.00 in0.0 mm
05:15 AM 13.5°F-10.3°C 7.0°F-13.9°C 75% Calm Calm -- 30.51 in1033.2 mb 0.00 in0.0 mm 0.00 in0.0 mm 0.00 in0.0 mm
05:30 AM 13.4°F-10.3°C 6.9°F-13.9°C 75% Calm Calm -- 30.51 in1033.2 mb 0.00 in0.0 mm 0.00 in0.0 mm 0.00 in0.0 mm
05:45 AM 13.2°F-10.4°C 7.3°F-13.7°C 77% Calm Calm -- 30.52 in1033.5 mb 0.00 in0.0 mm 0.00 in0.0 mm 0.00 in0.0 mm
06:00 AM 13.3°F-10.4°C 7.7°F-13.5°C 78% Calm Calm -- 30.52 in1033.5 mb 0.00 in0.0 mm 0.00 in0.0 mm 0.00 in0.0 mm
06:15 AM 13.4°F-10.3°C 8.4°F-13.1°C 80% Calm Calm -- 30.53 in1033.9 mb 0.00 in0.0 mm 0.00 in0.0 mm 0.00 in0.0 mm
06:30 AM 13.1°F-10.5°C 8.1°F-13.3°C 80% Calm Calm -- 30.53 in1033.9 mb 0.00 in0.0 mm 0.00 in0.0 mm 0.00 in0.0 mm
06:45 AM 12.7°F-10.7°C 8.0°F-13.3°C 81% Calm Calm -- 30.54 in1034.2 mb 0.00 in0.0 mm 0.00 in0.0 mm 0.00 in0.0 mm
07:00 AM 12.7°F-10.7°C 8.2°F-13.2°C 82% Calm Calm -- 30.55 in1034.5 mb 0.00 in0.0 mm 0.00 in0.0 mm 0.00 in0.0 mm
07:15 AM 12.8°F-10.7°C 8.9°F-12.8°C 84% Calm Calm -- 30.55 in1034.5 mb 0.00 in0.0 mm 0.00 in0.0 mm 0.00 in0.0 mm
07:30 AM 12.8°F-10.7°C 8.9°F-12.8°C 84% Calm Calm -- 30.56 in1034.9 mb 0.00 in0.0 mm 0.00 in0.0 mm 0.00 in0.0 mm
07:45 AM 13.8°F-10.1°C 10.1°F-12.2°C 85% Calm Calm -- 30.55 in1034.5 mb 0.00 in0.0 mm 0.00 in0.0 mm 0.00 in0.0 mm
08:00 AM 16.1°F-8.8°C 11.8°F-11.2°C 83% Calm Calm -- 30.55 in1034.5 mb 0.00 in0.0 mm 0.00 in0.0 mm 0.00 in0.0 mm
08:15 AM 18.9°F-7.3°C 11.4°F-11.4°C 72% 1.0 mph S1.6 kmh S 1.0 mph1.6 kmh 30.56 in1034.9 mb 0.00 in0.0 mm 0.00 in0.0 mm 0.00 in0.0 mm
08:30 AM 21.4°F-5.9°C 10.4°F-12.0°C 62% 7.0 mph SE11.3 kmh SE 8.1 mph13.0 kmh 30.56 in1034.9 mb 0.00 in0.0 mm 0.00 in0.0 mm 0.00 in0.0 mm
08:45 AM 22.4°F-5.3°C 10.3°F-12.1°C 59% 6.0 mph SE9.7 kmh SE 8.1 mph13.0 kmh 30.56 in1034.9 mb 0.00 in0.0 mm 0.00 in0.0 mm 0.00 in0.0 mm
09:00 AM 23.1°F-4.9°C 10.2°F-12.1°C 57% 2.0 mph SSE3.2 kmh SSE 5.1 mph8.2 kmh 30.56 in1034.9 mb 0.00 in0.0 mm 0.00 in0.0 mm 0.00 in0.0 mm
09:15 AM 24.3°F-4.3°C 9.7°F-12.4°C 53% 5.0 mph SE8.0 kmh SE 5.1 mph8.2 kmh 30.56 in1034.9 mb 0.00 in0.0 mm 0.00 in0.0 mm 0.00 in0.0 mm
09:30 AM 25.8°F-3.4°C 11.9°F-11.2°C 55% 2.0 mph SSE3.2 kmh SSE 2.0 mph3.2 kmh 30.57 in1035.2 mb 0.00 in0.0 mm 0.00 in0.0 mm 0.00 in0.0 mm
09:45 AM 26.3°F-3.2°C 9.8°F-12.3°C 49% 2.0 mph S3.2 kmh S 6.1 mph9.8 kmh 30.57 in1035.2 mb 0.00 in0.0 mm 0.00 in0.0 mm 0.00 in0.0 mm
10:00 AM 27.7°F-2.4°C 9.2°F-12.7°C 45% 2.0 mph SSW3.2 kmh SSW 8.1 mph13.0 kmh 30.56 in1034.9 mb 0.00 in0.0 mm 0.00 in0.0 mm 0.00 in0.0 mm
10:15 AM 28.2°F-2.1°C 11.1°F-11.6°C 48% 2.0 mph SE3.2 kmh SE 7.1 mph11.4 kmh 30.56 in1034.9 mb 0.00 in0.0 mm 0.00 in0.0 mm 0.00 in0.0 mm
10:30 AM 28.6°F-1.9°C 10.5°F-11.9°C 46% 3.0 mph SE4.8 kmh SE 6.1 mph9.8 kmh 30.56 in1034.9 mb 0.00 in0.0 mm 0.00 in0.0 mm 0.00 in0.0 mm
10:45 AM 30.0°F-1.1°C 12.2°F-11.0°C 47% 3.0 mph SSW4.8 kmh SSW 3.0 mph4.8 kmh 30.57 in1035.2 mb 0.00 in0.0 mm 0.00 in0.0 mm 0.00 in0.0 mm
11:00 AM 30.9°F-0.6°C 12.5°F-10.8°C 46% 6.0 mph SW9.7 kmh SW 7.1 mph11.4 kmh 30.56 in1034.9 mb 0.00 in0.0 mm 0.00 in0.0 mm 0.00 in0.0 mm
11:15 AM 30.7°F-0.7°C 10.3°F-12.1°C 42% 5.0 mph SSW8.0 kmh SSW 8.1 mph13.0 kmh 30.55 in1034.5 mb 0.00 in0.0 mm 0.00 in0.0 mm 0.00 in0.0 mm
11:30 AM 30.7°F-0.7°C 11.8°F-11.2°C 45% 7.0 mph SW11.3 kmh SW 10.1 mph16.3 kmh 30.54 in1034.2 mb 0.00 in0.0 mm 0.00 in0.0 mm 0.00 in0.0 mm
11:45 AM 32.0°F0.0°C 14.0°F-10.0°C 47% 5.0 mph WSW8.0 kmh WSW 6.1 mph9.8 kmh 30.54 in1034.2 mb 0.00 in0.0 mm 0.00 in0.0 mm 0.00 in0.0 mm
12:00 PM 33.0°F0.6°C 12.9°F-10.6°C 43% 2.0 mph NNW3.2 kmh NNW 4.0 mph6.4 kmh 30.52 in1033.5 mb 0.00 in0.0 mm 0.00 in0.0 mm 0.00 in0.0 mm
12:15 PM 32.9°F0.5°C 12.3°F-10.9°C 42% 1.0 mph SSW1.6 kmh SSW 10.1 mph16.3 kmh 30.51 in1033.2 mb 0.00 in0.0 mm 0.00 in0.0 mm 0.00 in0.0 mm
12:30 PM 33.1°F0.6°C 9.6°F-12.4°C 37% 6.0 mph SW9.7 kmh SW 8.1 mph13.0 kmh 30.51 in1033.2 mb 0.00 in0.0 mm 0.00 in0.0 mm 0.00 in0.0 mm
12:45 PM 34.0°F1.1°C 11.6°F-11.3°C 39% 8.0 mph SSW12.9 kmh SSW 11.1 mph17.9 kmh 30.50 in1032.8 mb 0.00 in0.0 mm 0.00 in0.0 mm 0.00 in0.0 mm
01:00 PM 34.8°F1.6°C 10.6°F-11.9°C 36% 4.0 mph SSW6.4 kmh SSW 10.1 mph16.3 kmh 30.49 in1032.5 mb 0.00 in0.0 mm 0.00 in0.0 mm 0.00 in0.0 mm
01:15 PM 34.7°F1.5°C 12.3°F-10.9°C 39% 7.0 mph SW11.3 kmh SW 13.1 mph21.1 kmh 30.46 in1031.5 mb 0.00 in0.0 mm 0.00 in0.0 mm 0.00 in0.0 mm
01:30 PM 35.2°F1.8°C 12.1°F-11.1°C 38% 9.0 mph WSW14.5 kmh WSW 9.1 mph14.6 kmh 30.45 in1031.2 mb 0.00 in0.0 mm 0.00 in0.0 mm 0.00 in0.0 mm
01:45 PM 36.1°F2.3°C 11.1°F-11.6°C 35% 5.0 mph SW8.0 kmh SW 11.1 mph17.9 kmh 30.45 in1031.2 mb 0.00 in0.0 mm 0.00 in0.0 mm 0.00 in0.0 mm
02:00 PM 37.0°F2.8°C 11.9°F-11.2°C 35% 4.0 mph WSW6.4 kmh WSW 6.1 mph9.8 kmh 30.45 in1031.2 mb 0.00 in0.0 mm 0.00 in0.0 mm 0.00 in0.0 mm
02:15 PM 37.7°F3.2°C 13.2°F-10.4°C 36% 10.0 mph SSW16.1 kmh SSW 10.1 mph16.3 kmh 30.45 in1031.2 mb 0.00 in0.0 mm 0.00 in0.0 mm 0.00 in0.0 mm
02:30 PM 37.3°F2.9°C 10.8°F-11.8°C 33% 6.0 mph SW9.7 kmh SW 10.1 mph16.3 kmh 30.44 in1030.8 mb 0.00 in0.0 mm 0.00 in0.0 mm 0.00 in0.0 mm
02:45 PM 37.4°F3.0°C 10.9°F-11.7°C 33% 6.0 mph S9.7 kmh S 9.1 mph14.6 kmh 30.44 in1030.8 mb 0.00 in0.0 mm 0.00 in0.0 mm 0.00 in0.0 mm
03:00 PM 37.9°F3.3°C 10.0°F-12.2°C 31% 3.0 mph SW4.8 kmh SW 11.1 mph17.9 kmh 30.43 in1030.5 mb 0.00 in0.0 mm 0.00 in0.0 mm 0.00 in0.0 mm
03:15 PM 37.7°F3.2°C 11.9°F-11.2°C 34% 5.0 mph S8.0 kmh S 8.1 mph13.0 kmh 30.43 in1030.5 mb 0.00 in0.0 mm 0.00 in0.0 mm 0.00 in0.0 mm
03:30 PM 37.5°F3.1°C 11.0°F-11.7°C 33% 5.0 mph SW8.0 kmh SW 7.1 mph11.4 kmh 30.42 in1030.1 mb 0.00 in0.0 mm 0.00 in0.0 mm 0.00 in0.0 mm
03:45 PM 36.9°F2.7°C 9.1°F-12.7°C 31% 14.0 mph SSW22.5 kmh SSW 17.2 mph27.7 kmh 30.42 in1030.1 mb 0.00 in0.0 mm 0.00 in0.0 mm 0.00 in0.0 mm
04:00 PM 36.9°F2.7°C 10.5°F-11.9°C 33% 2.0 mph SSW3.2 kmh SSW 4.0 mph6.4 kmh 30.42 in1030.1 mb 0.00 in0.0 mm 0.00 in0.0 mm 0.00 in0.0 mm
04:15 PM 36.6°F2.6°C 9.5°F-12.5°C 32% 9.0 mph S14.5 kmh S 15.1 mph24.3 kmh 30.42 in1030.1 mb 0.00 in0.0 mm 0.00 in0.0 mm 0.00 in0.0 mm
04:30 PM 36.4°F2.4°C 10.0°F-12.2°C 33% 9.0 mph SSW14.5 kmh SSW 10.1 mph16.3 kmh 30.42 in1030.1 mb 0.00 in0.0 mm 0.00 in0.0 mm 0.00 in0.0 mm
04:45 PM 36.0°F2.2°C 10.4°F-12.0°C 34% 5.0 mph S8.0 kmh S 9.1 mph14.6 kmh 30.41 in1029.8 mb 0.00 in0.0 mm 0.00 in0.0 mm 0.00 in0.0 mm
05:00 PM 35.5°F1.9°C 10.6°F-11.9°C 35% 3.0 mph SSW4.8 kmh SSW 5.1 mph8.2 kmh 30.41 in1029.8 mb 0.00 in0.0 mm 0.00 in0.0 mm 0.00 in0.0 mm
05:15 PM 35.1°F1.7°C 10.2°F-12.1°C 35% 4.0 mph SW6.4 kmh SW 7.1 mph11.4 kmh 30.41 in1029.8 mb 0.00 in0.0 mm 0.00 in0.0 mm 0.00 in0.0 mm
05:30 PM 34.6°F1.4°C 10.4°F-12.0°C 36% 3.0 mph SW4.8 kmh SW 8.1 mph13.0 kmh 30.41 in1029.8 mb 0.00 in0.0 mm 0.00 in0.0 mm 0.00 in0.0 mm
05:45 PM 34.0°F1.1°C 9.8°F-12.3°C 36% 2.0 mph S3.2 kmh S 5.1 mph8.2 kmh 30.42 in1030.1 mb 0.00 in0.0 mm 0.00 in0.0 mm 0.00 in0.0 mm
06:00 PM 33.6°F0.9°C 10.1°F-12.2°C 37% 3.0 mph SSE4.8 kmh SSE 6.1 mph9.8 kmh 30.42 in1030.1 mb 0.00 in0.0 mm 0.00 in0.0 mm 0.00 in0.0 mm
06:15 PM 33.4°F0.8°C 10.5°F-11.9°C 38% 1.0 mph SSE1.6 kmh SSE 6.1 mph9.8 kmh 30.42 in1030.1 mb 0.00 in0.0 mm 0.00 in0.0 mm 0.00 in0.0 mm
06:30 PM 33.0°F0.6°C 10.2°F-12.1°C 38% 1.0 mph S1.6 kmh S 3.0 mph4.8 kmh 30.42 in1030.1 mb 0.00 in0.0 mm 0.00 in0.0 mm 0.00 in0.0 mm
06:45 PM 32.6°F0.3°C 10.4°F-12.0°C 39% 1.0 mph S1.6 kmh S 4.0 mph6.4 kmh 30.42 in1030.1 mb 0.00 in0.0 mm 0.00 in0.0 mm 0.00 in0.0 mm
07:00 PM 32.6°F0.3°C 10.9°F-11.7°C 40% 2.0 mph S3.2 kmh S 4.0 mph6.4 kmh 30.42 in1030.1 mb 0.00 in0.0 mm 0.00 in0.0 mm 0.00 in0.0 mm
07:15 PM 32.6°F0.3°C 11.5°F-11.4°C 41% 2.0 mph S3.2 kmh S 5.1 mph8.2 kmh 30.42 in1030.1 mb 0.00 in0.0 mm 0.00 in0.0 mm 0.00 in0.0 mm
07:30 PM 32.5°F0.3°C 11.9°F-11.2°C 42% 5.0 mph SSE8.0 kmh SSE 6.1 mph9.8 kmh 30.42 in1030.1 mb 0.00 in0.0 mm 0.00 in0.0 mm 0.00 in0.0 mm
07:45 PM 32.3°F0.2°C 11.8°F-11.2°C 42% 4.0 mph S6.4 kmh S 8.1 mph13.0 kmh 30.42 in1030.1 mb 0.00 in0.0 mm 0.00 in0.0 mm 0.00 in0.0 mm
08:00 PM 32.1°F0.1°C 12.1°F-11.1°C 43% 2.0 mph S3.2 kmh S 3.0 mph4.8 kmh 30.42 in1030.1 mb 0.00 in0.0 mm 0.00 in0.0 mm 0.00 in0.0 mm
08:15 PM 31.9°F-0.1°C 11.9°F-11.2°C 43% 2.0 mph SSW3.2 kmh SSW 6.1 mph9.8 kmh 30.41 in1029.8 mb 0.00 in0.0 mm 0.00 in0.0 mm 0.00 in0.0 mm
08:30 PM 31.9°F-0.1°C 11.9°F-11.2°C 43% 1.0 mph SSE1.6 kmh SSE 8.1 mph13.0 kmh 30.41 in1029.8 mb 0.00 in0.0 mm 0.00 in0.0 mm 0.00 in0.0 mm
08:45 PM 32.1°F0.1°C 12.1°F-11.1°C 43% 6.0 mph SSE9.7 kmh SSE 8.1 mph13.0 kmh 30.40 in1029.5 mb 0.00 in0.0 mm 0.00 in0.0 mm 0.00 in0.0 mm
09:00 PM 32.6°F0.3°C 12.6°F-10.8°C 43% 5.0 mph SSW8.0 kmh SSW 9.1 mph14.6 kmh 30.41 in1029.8 mb 0.00 in0.0 mm 0.00 in0.0 mm 0.00 in0.0 mm
09:15 PM 32.8°F0.4°C 12.2°F-11.0°C 42% 5.0 mph SW8.0 kmh SW 10.1 mph16.3 kmh 30.41 in1029.8 mb 0.00 in0.0 mm 0.00 in0.0 mm 0.00 in0.0 mm
09:30 PM 32.7°F0.4°C 12.7°F-10.7°C 43% 6.0 mph SW9.7 kmh SW 9.1 mph14.6 kmh 30.41 in1029.8 mb 0.00 in0.0 mm 0.00 in0.0 mm 0.00 in0.0 mm
09:45 PM 32.5°F0.3°C 12.5°F-10.8°C 43% 3.0 mph S4.8 kmh S 3.0 mph4.8 kmh 30.41 in1029.8 mb 0.00 in0.0 mm 0.00 in0.0 mm 0.00 in0.0 mm
10:00 PM 32.4°F0.2°C 12.4°F-10.9°C 43% 3.0 mph S4.8 kmh S 7.1 mph11.4 kmh 30.40 in1029.5 mb 0.00 in0.0 mm 0.00 in0.0 mm 0.00 in0.0 mm
10:15 PM 32.3°F0.2°C 12.8°F-10.7°C 44% 2.0 mph SSW3.2 kmh SSW 6.1 mph9.8 kmh 30.40 in1029.5 mb 0.00 in0.0 mm 0.00 in0.0 mm 0.00 in0.0 mm
10:30 PM 32.3°F0.2°C 12.8°F-10.7°C 44% 2.0 mph SSE3.2 kmh SSE 6.1 mph9.8 kmh 30.39 in1029.1 mb 0.00 in0.0 mm 0.00 in0.0 mm 0.00 in0.0 mm
10:45 PM 32.5°F0.3°C 13.5°F-10.3°C 45% 2.0 mph S3.2 kmh S 2.0 mph3.2 kmh 30.39 in1029.1 mb 0.00 in0.0 mm 0.00 in0.0 mm 0.00 in0.0 mm
11:00 PM 32.7°F0.4°C 13.7°F-10.2°C 45% 8.0 mph S12.9 kmh S 9.1 mph14.6 kmh 30.39 in1029.1 mb 0.00 in0.0 mm 0.00 in0.0 mm 0.00 in0.0 mm
11:15 PM 32.8°F0.4°C 13.8°F-10.1°C 45% 1.0 mph SW1.6 kmh SW 5.1 mph8.2 kmh 30.38 in1028.8 mb 0.00 in0.0 mm 0.00 in0.0 mm 0.00 in0.0 mm
11:30 PM 33.1°F0.6°C 14.1°F-9.9°C 45% 2.0 mph S3.2 kmh S 5.1 mph8.2 kmh 30.38 in1028.8 mb 0.00 in0.0 mm 0.00 in0.0 mm 0.00 in0.0 mm
11:45 PM 33.2°F0.7°C 14.1°F-9.9°C 45% 1.0 mph S1.6 kmh S 5.1 mph8.2 kmh 30.37 in1028.4 mb 0.00 in0.0 mm 0.00 in0.0 mm 0.00 in0.0 mm